Aérodrome :
LOGIN :

S'inscrire | Disclaimer

   EN    FR    IT 

 










Légende :    VFR   VFR Marginal   IFR   IFR Intensif   IFR Très Intensif
Visi : 
Plafond : 
>= 8 km
>= 3000ft
5 à 8 km
1000 à 3000 ft
1500m à 5 km
500 à 1000 ft
800 à 1500m
200 à 500 ft
< 800m
< 200 ft
Symboles :   Orages  Brouillard  Fortes neiges  Fortes précipitations  Vent > 20 kt
SIGMETs :   Divers  Orages  Givrage  Turbulence  Onde Orograph.  Cendres Volcan.







- Altitude de l'aérodrome : 101 ft
- Code IATA : GLO
- Voir les cartes d'approche


EGBJ - Gloucestershire

DERNIER METAR :
  • 181820Z 16012KT 9999 -RA FEW012 BKN035 05/M02 Q1010

METARs EXPIRÉS :
  • 181750Z 16013KT 9999 -RA FEW012 BKN035 05/M03 Q1010
  • 181720Z 16012KT 9999 VCSH FEW010 SCT035 05/M02 Q1010
  • 181650Z 16011KT 9999 VCSH FEW008 05/M03 Q1010
  • 181620Z 16013KT 9999 VCSH FEW012 06/M02 Q1010
  • 181550Z 16013G23KT 9999 VCSH FEW012 06/M03 Q1011

TAF TAF EGBJ
Valide du 18 à 18h jusqu'au 18 à 20h UTC


181658Z 1818/1820 15012KT 9999 SCT016
TEMPO 1818/1820 18015G25KT 7000 RA BKN012
PROB30
TEMPO 1818/1820 4000 +RA BKN008
Pas de NOTAMs connus pour ce terrain.



MET'MAP, la Météo Aéronautique d'un coup d'oeil ! - Copyright ORBIFLY Décembre 2007 - Disclaimer

ORBIFLY MET'MAP TEAM :

Programmation & Développement : Alexandra Zaïnal
Conception & Développement : Baudouin d'Aumeries
Co-Programmation & Développement : Marc-Olivier Méhu
Soutien technique & logistique : Manuel Goepfert

Contact : metmap@orbifly.com




SOURCES & CREDITS :

   NOAA